sensor_id;sensor_type;location;lat;lon;timestamp;pressure;altitude;pressure_sealevel;temperature;humidity
21594;BME280;10959;51.328;7.322;2022-11-30T00:01:59;99240.78;;;10.01;83.10
21594;BME280;10959;51.328;7.322;2022-11-30T00:04:26;99243.91;;;9.90;83.45
21594;BME280;10959;51.328;7.322;2022-11-30T00:06:52;99236.84;;;9.88;83.57
21594;BME280;10959;51.328;7.322;2022-11-30T00:09:21;99233.34;;;9.85;83.78
21594;BME280;10959;51.328;7.322;2022-11-30T00:11:48;99231.63;;;9.83;84.05
21594;BME280;10959;51.328;7.322;2022-11-30T00:14:16;99230.66;;;9.85;84.07
21594;BME280;10959;51.328;7.322;2022-11-30T00:16:42;99225.91;;;9.92;83.79
21594;BME280;10959;51.328;7.322;2022-11-30T00:19:09;99232.97;;;9.95;83.86
21594;BME280;10959;51.328;7.322;2022-11-30T00:21:35;99242.78;;;9.96;83.46
21594;BME280;10959;51.328;7.322;2022-11-30T00:24:03;99239.41;;;9.91;83.90
21594;BME280;10959;51.328;7.322;2022-11-30T00:26:30;99238.44;;;9.93;83.74
21594;BME280;10959;51.328;7.322;2022-11-30T00:28:56;99233.78;;;9.97;83.80
21594;BME280;10959;51.328;7.322;2022-11-30T00:31:24;99235.53;;;9.98;83.42
21594;BME280;10959;51.328;7.322;2022-11-30T00:33:51;99240.78;;;10.01;83.86
21594;BME280;10959;51.328;7.322;2022-11-30T00:36:19;99242.50;;;10.03;83.39
21594;BME280;10959;51.328;7.322;2022-11-30T00:38:46;99236.13;;;10.06;83.62
21594;BME280;10959;51.328;7.322;2022-11-30T00:41:14;99236.91;;;10.08;83.44
21594;BME280;10959;51.328;7.322;2022-11-30T00:43:41;99235.97;;;10.09;83.33
21594;BME280;10959;51.328;7.322;2022-11-30T00:46:08;99233.16;;;10.12;83.59
21594;BME280;10959;51.328;7.322;2022-11-30T00:48:37;99229.53;;;10.13;83.34
21594;BME280;10959;51.328;7.322;2022-11-30T00:51:04;99236.66;;;10.14;82.98
21594;BME280;10959;51.328;7.322;2022-11-30T00:53:31;99237.47;;;10.16;82.99
21594;BME280;10959;51.328;7.322;2022-11-30T00:55:57;99227.78;;;10.12;83.11
21594;BME280;10959;51.328;7.322;2022-11-30T00:58:24;99232.22;;;10.13;83.11
21594;BME280;10959;51.328;7.322;2022-11-30T01:00:50;99227.66;;;10.15;83.13
21594;BME280;10959;51.328;7.322;2022-11-30T01:03:17;99226.91;;;10.12;83.04
21594;BME280;10959;51.328;7.322;2022-11-30T01:05:45;99226.03;;;10.11;83.29
21594;BME280;10959;51.328;7.322;2022-11-30T01:08:12;99222.47;;;10.11;82.96
21594;BME280;10959;51.328;7.322;2022-11-30T01:10:40;99224.38;;;10.07;83.42
21594;BME280;10959;51.328;7.322;2022-11-30T01:13:07;99231.66;;;10.05;83.65
21594;BME280;10959;51.328;7.322;2022-11-30T01:15:35;99229.91;;;10.04;83.42
21594;BME280;10959;51.328;7.322;2022-11-30T01:18:03;99231.78;;;10.02;83.43
21594;BME280;10959;51.328;7.322;2022-11-30T01:20:30;99225.44;;;10.03;83.38
21594;BME280;10959;51.328;7.322;2022-11-30T01:22:57;99241.44;;;10.08;83.42
21594;BME280;10959;51.328;7.322;2022-11-30T01:25:24;99240.53;;;10.07;83.71
21594;BME280;10959;51.328;7.322;2022-11-30T01:27:50;99239.53;;;10.10;83.74
21594;BME280;10959;51.328;7.322;2022-11-30T01:30:17;99232.31;;;10.12;83.09
21594;BME280;10959;51.328;7.322;2022-11-30T01:32:44;99236.78;;;10.11;83.37
21594;BME280;10959;51.328;7.322;2022-11-30T01:35:10;99234.78;;;10.16;83.24
21594;BME280;10959;51.328;7.322;2022-11-30T01:37:37;99241.09;;;10.15;83.65
21594;BME280;10959;51.328;7.322;2022-11-30T01:40:10;99235.28;;;10.04;82.89
21594;BME280;10959;51.328;7.322;2022-11-30T01:42:36;99238.41;;;10.15;82.74
21594;BME280;10959;51.328;7.322;2022-11-30T01:45:04;99233.16;;;10.12;82.96
21594;BME280;10959;51.328;7.322;2022-11-30T01:47:33;99238.75;;;10.08;83.34
21594;BME280;10959;51.328;7.322;2022-11-30T01:50:06;99242.69;;;9.99;83.53
21594;BME280;10959;51.328;7.322;2022-11-30T01:52:36;99247.94;;;10.02;83.42
21594;BME280;10959;51.328;7.322;2022-11-30T01:55:13;99245.78;;;9.88;83.28
21594;BME280;10959;51.328;7.322;2022-11-30T01:57:44;99238.16;;;9.99;83.63
21594;BME280;10959;51.328;7.322;2022-11-30T02:00:13;99249.56;;;10.06;83.75
21594;BME280;10959;51.328;7.322;2022-11-30T02:02:44;99246.94;;;10.05;83.33
21594;BME280;10959;51.328;7.322;2022-11-30T02:05:13;99240.44;;;10.10;83.30
21594;BME280;10959;51.328;7.322;2022-11-30T02:07:41;99235.28;;;10.04;83.31
21594;BME280;10959;51.328;7.322;2022-11-30T02:10:14;99241.91;;;9.95;83.21
21594;BME280;10959;51.328;7.322;2022-11-30T02:12:54;99242.91;;;9.93;83.23
21594;BME280;10959;51.328;7.322;2022-11-30T02:15:32;99240.94;;;9.98;83.65
21594;BME280;10959;51.328;7.322;2022-11-30T02:18:06;99245.44;;;9.97;83.75
21594;BME280;10959;51.328;7.322;2022-11-30T02:20:48;99238.59;;;9.89;83.31
21594;BME280;10959;51.328;7.322;2022-11-30T02:23:34;99231.41;;;9.89;83.60
21594;BME280;10959;51.328;7.322;2022-11-30T02:26:22;99234.25;;;9.84;83.65
21594;BME280;10959;51.328;7.322;2022-11-30T02:29:05;99230.25;;;9.73;83.80
21594;BME280;10959;51.328;7.322;2022-11-30T02:31:40;99234.38;;;9.81;83.80
21594;BME280;10959;51.328;7.322;2022-11-30T02:34:09;99240.03;;;9.75;84.59
21594;BME280;10959;51.328;7.322;2022-11-30T02:36:37;99232.00;;;9.74;85.03
21594;BME280;10959;51.328;7.322;2022-11-30T02:39:04;99225.53;;;9.79;84.69
21594;BME280;10959;51.328;7.322;2022-11-30T02:41:35;99221.31;;;9.72;84.75
21594;BME280;10959;51.328;7.322;2022-11-30T02:44:03;99220.25;;;9.76;84.90
21594;BME280;10959;51.328;7.322;2022-11-30T02:46:34;99226.69;;;9.72;84.88
21594;BME280;10959;51.328;7.322;2022-11-30T02:49:08;99229.50;;;9.69;85.18
21594;BME280;10959;51.328;7.322;2022-11-30T02:51:39;99223.38;;;9.65;85.38
21594;BME280;10959;51.328;7.322;2022-11-30T02:54:07;99219.88;;;9.63;85.69
21594;BME280;10959;51.328;7.322;2022-11-30T02:56:33;99225.00;;;9.69;85.47
21594;BME280;10959;51.328;7.322;2022-11-30T02:59:00;99231.03;;;9.76;85.25
21594;BME280;10959;51.328;7.322;2022-11-30T03:01:27;99226.63;;;9.74;85.24
21594;BME280;10959;51.328;7.322;2022-11-30T03:03:54;99229.50;;;9.69;85.64
21594;BME280;10959;51.328;7.322;2022-11-30T03:06:20;99229.38;;;9.72;85.67
21594;BME280;10959;51.328;7.322;2022-11-30T03:08:47;99242.63;;;9.55;86.25
21594;BME280;10959;51.328;7.322;2022-11-30T03:11:13;99235.09;;;9.63;86.16
21594;BME280;10959;51.328;7.322;2022-11-30T03:13:40;99236.69;;;9.68;86.00
21594;BME280;10959;51.328;7.322;2022-11-30T03:16:07;99228.56;;;9.70;85.66
21594;BME280;10959;51.328;7.322;2022-11-30T03:18:37;99231.25;;;9.70;85.25
21594;BME280;10959;51.328;7.322;2022-11-30T03:21:04;99225.19;;;9.65;85.93
21594;BME280;10959;51.328;7.322;2022-11-30T03:23:31;99228.00;;;9.62;86.16
21594;BME280;10959;51.328;7.322;2022-11-30T03:25:58;99219.75;;;9.66;85.56
21594;BME280;10959;51.328;7.322;2022-11-30T03:28:24;99226.75;;;9.71;86.02
21594;BME280;10959;51.328;7.322;2022-11-30T03:30:51;99224.13;;;9.69;85.66
21594;BME280;10959;51.328;7.322;2022-11-30T03:33:17;99224.13;;;9.69;86.15
21594;BME280;10959;51.328;7.322;2022-11-30T03:35:46;99230.91;;;9.56;86.10
21594;BME280;10959;51.328;7.322;2022-11-30T03:38:12;99236.91;;;9.40;87.17
21594;BME280;10959;51.328;7.322;2022-11-30T03:40:39;99242.97;;;9.45;86.93
21594;BME280;10959;51.328;7.322;2022-11-30T03:43:05;99244.97;;;9.40;86.60
21594;BME280;10959;51.328;7.322;2022-11-30T03:45:32;99252.31;;;9.35;86.80
21594;BME280;10959;51.328;7.322;2022-11-30T03:47:58;99253.72;;;9.45;87.01
21594;BME280;10959;51.328;7.322;2022-11-30T03:50:24;99251.72;;;9.50;86.78
21594;BME280;10959;51.328;7.322;2022-11-30T03:52:52;99253.25;;;9.58;86.59
21594;BME280;10959;51.328;7.322;2022-11-30T03:55:19;99259.31;;;9.63;85.74
21594;BME280;10959;51.328;7.322;2022-11-30T03:57:45;99261.53;;;9.51;85.94
21594;BME280;10959;51.328;7.322;2022-11-30T04:00:12;99264.13;;;9.55;85.91
21594;BME280;10959;51.328;7.322;2022-11-30T04:02:39;99260.72;;;9.49;86.00
21594;BME280;10959;51.328;7.322;2022-11-30T04:05:06;99262.00;;;9.39;85.91
21594;BME280;10959;51.328;7.322;2022-11-30T04:07:33;99264.59;;;9.42;85.77
21594;BME280;10959;51.328;7.322;2022-11-30T04:10:01;99264.34;;;9.48;85.81
21594;BME280;10959;51.328;7.322;2022-11-30T04:12:27;99264.13;;;9.55;85.92
21594;BME280;10959;51.328;7.322;2022-11-30T04:14:54;99274.16;;;9.49;85.51
21594;BME280;10959;51.328;7.322;2022-11-30T04:17:20;99265.63;;;9.38;85.92
21594;BME280;10959;51.328;7.322;2022-11-30T04:19:46;99270.19;;;9.36;85.85
21594;BME280;10959;51.328;7.322;2022-11-30T04:22:13;99268.56;;;9.32;85.92
21594;BME280;10959;51.328;7.322;2022-11-30T04:24:39;99266.91;;;9.28;86.15
21594;BME280;10959;51.328;7.322;2022-11-30T04:27:07;99267.03;;;9.25;86.17
21594;BME280;10959;51.328;7.322;2022-11-30T04:29:35;99263.38;;;9.26;85.76
21594;BME280;10959;51.328;7.322;2022-11-30T04:32:01;99270.88;;;9.18;85.86
21594;BME280;10959;51.328;7.322;2022-11-30T04:34:28;99269.34;;;9.10;85.79
21594;BME280;10959;51.328;7.322;2022-11-30T04:36:55;99270.97;;;9.14;85.70
21594;BME280;10959;51.328;7.322;2022-11-30T04:39:22;99277.28;;;9.13;85.86
21594;BME280;10959;51.328;7.322;2022-11-30T04:41:48;99273.38;;;8.97;86.04
21594;BME280;10959;51.328;7.322;2022-11-30T04:44:16;99271.66;;;8.96;86.44
21594;BME280;10959;51.328;7.322;2022-11-30T04:46:43;99268.91;;;8.97;86.85
21594;BME280;10959;51.328;7.322;2022-11-30T04:49:09;99278.63;;;9.00;86.45
21594;BME280;10959;51.328;7.322;2022-11-30T04:51:36;99271.72;;;8.93;86.70
21594;BME280;10959;51.328;7.322;2022-11-30T04:54:03;99280.53;;;8.98;86.12
21594;BME280;10959;51.328;7.322;2022-11-30T04:56:29;99274.38;;;8.94;86.78
21594;BME280;10959;51.328;7.322;2022-11-30T04:58:55;99278.81;;;8.95;86.04
21594;BME280;10959;51.328;7.322;2022-11-30T05:01:23;99287.75;;;8.96;86.33
21594;BME280;10959;51.328;7.322;2022-11-30T05:03:50;99292.91;;;9.02;86.38
21594;BME280;10959;51.328;7.322;2022-11-30T05:06:16;99292.06;;;9.00;86.23
21594;BME280;10959;51.328;7.322;2022-11-30T05:08:43;99289.94;;;8.85;86.34
21594;BME280;10959;51.328;7.322;2022-11-30T05:11:09;99292.56;;;8.86;86.23
21594;BME280;10959;51.328;7.322;2022-11-30T05:13:36;99297.69;;;8.67;86.82
21594;BME280;10959;51.328;7.322;2022-11-30T05:16:02;99292.13;;;8.73;86.51
21594;BME280;10959;51.328;7.322;2022-11-30T05:18:30;99294.06;;;8.68;86.61
21594;BME280;10959;51.328;7.322;2022-11-30T05:20:57;99301.00;;;8.75;86.19
21594;BME280;10959;51.328;7.322;2022-11-30T05:23:24;99292.41;;;8.64;85.91
21594;BME280;10959;51.328;7.322;2022-11-30T05:25:50;99301.22;;;8.69;85.56
21594;BME280;10959;51.328;7.322;2022-11-30T05:28:17;99297.91;;;8.61;85.28
21594;BME280;10959;51.328;7.322;2022-11-30T05:30:44;99299.84;;;8.56;85.06
21594;BME280;10959;51.328;7.322;2022-11-30T05:33:11;99299.56;;;8.65;85.11
21594;BME280;10959;51.328;7.322;2022-11-30T05:35:39;99303.78;;;8.72;84.83
21594;BME280;10959;51.328;7.322;2022-11-30T05:38:05;99315.25;;;8.77;84.35
21594;BME280;10959;51.328;7.322;2022-11-30T05:40:32;99305.16;;;8.84;84.13
21594;BME280;10959;51.328;7.322;2022-11-30T05:42:59;99306.06;;;8.85;83.75
21594;BME280;10959;51.328;7.322;2022-11-30T05:45:26;99306.75;;;8.90;83.83
21594;BME280;10959;51.328;7.322;2022-11-30T05:47:53;99309.44;;;8.90;83.84
21594;BME280;10959;51.328;7.322;2022-11-30T05:50:20;99313.28;;;8.82;83.68
21594;BME280;10959;51.328;7.322;2022-11-30T05:52:48;99307.78;;;8.86;83.44
21594;BME280;10959;51.328;7.322;2022-11-30T05:55:14;99308.69;;;8.86;83.18
21594;BME280;10959;51.328;7.322;2022-11-30T05:57:41;99305.84;;;8.91;83.33
21594;BME280;10959;51.328;7.322;2022-11-30T06:00:09;99305.72;;;8.94;83.32
21594;BME280;10959;51.328;7.322;2022-11-30T06:02:36;99305.00;;;8.89;83.03
21594;BME280;10959;51.328;7.322;2022-11-30T06:05:03;99308.69;;;8.86;82.77
21594;BME280;10959;51.328;7.322;2022-11-30T06:07:29;99306.88;;;8.87;82.46
21594;BME280;10959;51.328;7.322;2022-11-30T06:09:57;99306.81;;;8.88;83.15
21594;BME280;10959;51.328;7.322;2022-11-30T06:12:24;99309.66;;;8.84;82.53
21594;BME280;10959;51.328;7.322;2022-11-30T06:14:50;99308.00;;;8.79;82.80
21594;BME280;10959;51.328;7.322;2022-11-30T06:17:17;99309.78;;;8.80;82.33
21594;BME280;10959;51.328;7.322;2022-11-30T06:19:43;99303.38;;;8.85;82.66
21594;BME280;10959;51.328;7.322;2022-11-30T06:22:10;99303.31;;;8.86;82.39
21594;BME280;10959;51.328;7.322;2022-11-30T06:24:36;99307.69;;;8.89;82.17
21594;BME280;10959;51.328;7.322;2022-11-30T06:27:04;99305.84;;;8.91;82.07
21594;BME280;10959;51.328;7.322;2022-11-30T06:29:31;99311.94;;;8.96;82.06
21594;BME280;10959;51.328;7.322;2022-11-30T06:31:57;99307.50;;;8.95;82.45
21594;BME280;10959;51.328;7.322;2022-11-30T06:34:23;99311.22;;;8.91;81.75
21594;BME280;10959;51.328;7.322;2022-11-30T06:36:50;99318.34;;;8.92;81.91
21594;BME280;10959;51.328;7.322;2022-11-30T06:39:17;99318.41;;;8.89;82.23
21594;BME280;10959;51.328;7.322;2022-11-30T06:41:43;99316.69;;;8.88;81.79
21594;BME280;10959;51.328;7.322;2022-11-30T06:44:11;99316.59;;;8.91;81.84
21594;BME280;10959;51.328;7.322;2022-11-30T06:46:38;99316.81;;;8.85;81.47
21594;BME280;10959;51.328;7.322;2022-11-30T06:49:04;99322.16;;;8.85;82.12
21594;BME280;10959;51.328;7.322;2022-11-30T06:51:32;99318.53;;;8.86;82.21
21594;BME280;10959;51.328;7.322;2022-11-30T06:53:58;99315.16;;;8.80;81.97
21594;BME280;10959;51.328;7.322;2022-11-30T06:56:25;99315.34;;;8.74;81.59
21594;BME280;10959;51.328;7.322;2022-11-30T06:58:52;99324.34;;;8.73;81.92
21594;BME280;10959;51.328;7.322;2022-11-30T07:01:19;99319.25;;;8.64;82.01
21594;BME280;10959;51.328;7.322;2022-11-30T07:03:46;99318.34;;;8.65;82.18
21594;BME280;10959;51.328;7.322;2022-11-30T07:06:13;99320.81;;;8.71;82.21
21594;BME280;10959;51.328;7.322;2022-11-30T07:08:40;99326.41;;;8.65;82.49
21594;BME280;10959;51.328;7.322;2022-11-30T07:11:08;99315.66;;;8.65;81.95
21594;BME280;10959;51.328;7.322;2022-11-30T07:13:35;99324.41;;;8.70;82.30
21594;BME280;10959;51.328;7.322;2022-11-30T07:16:03;99327.31;;;8.64;82.45
21594;BME280;10959;51.328;7.322;2022-11-30T07:18:34;99326.78;;;8.53;82.40
21594;BME280;10959;51.328;7.322;2022-11-30T07:21:02;99332.84;;;8.59;82.32
21594;BME280;10959;51.328;7.322;2022-11-30T07:23:29;99330.22;;;8.58;82.62
21594;BME280;10959;51.328;7.322;2022-11-30T07:26:13;99330.13;;;8.61;82.52
21594;BME280;10959;51.328;7.322;2022-11-30T07:28:41;99334.50;;;8.63;82.12
21594;BME280;10959;51.328;7.322;2022-11-30T07:31:16;99344.56;;;8.57;82.12
21594;BME280;10959;51.328;7.322;2022-11-30T07:33:45;99342.50;;;8.65;82.43
21594;BME280;10959;51.328;7.322;2022-11-30T07:36:11;99351.28;;;8.70;82.49
21594;BME280;10959;51.328;7.322;2022-11-30T07:38:38;99351.09;;;8.76;82.20
21594;BME280;10959;51.328;7.322;2022-11-30T07:41:05;99352.75;;;8.80;82.44
21594;BME280;10959;51.328;7.322;2022-11-30T07:43:31;99353.56;;;8.82;81.84
21594;BME280;10959;51.328;7.322;2022-11-30T07:45:58;99360.69;;;8.84;82.36
21594;BME280;10959;51.328;7.322;2022-11-30T07:48:25;99366.00;;;8.85;81.91
21594;BME280;10959;51.328;7.322;2022-11-30T07:50:53;99363.38;;;8.84;81.71
21594;BME280;10959;51.328;7.322;2022-11-30T07:53:19;99374.13;;;8.84;81.82
21594;BME280;10959;51.328;7.322;2022-11-30T07:55:46;99365.22;;;8.81;81.94
21594;BME280;10959;51.328;7.322;2022-11-30T07:58:13;99370.59;;;8.81;81.65
21594;BME280;10959;51.328;7.322;2022-11-30T08:00:39;99366.22;;;8.79;81.70
21594;BME280;10959;51.328;7.322;2022-11-30T08:03:06;99363.47;;;8.80;82.09
21594;BME280;10959;51.328;7.322;2022-11-30T08:05:32;99368.75;;;8.84;81.70
21594;BME280;10959;51.328;7.322;2022-11-30T08:08:00;99367.97;;;8.80;81.73
21594;BME280;10959;51.328;7.322;2022-11-30T08:10:27;99370.59;;;8.81;81.84
21594;BME280;10959;51.328;7.322;2022-11-30T08:12:53;99369.56;;;8.59;82.28
21594;BME280;10959;51.328;7.322;2022-11-30T08:15:20;99378.44;;;8.61;81.99
21594;BME280;10959;51.328;7.322;2022-11-30T08:17:46;99374.72;;;8.65;82.52
21594;BME280;10959;51.328;7.322;2022-11-30T08:20:18;99374.25;;;8.52;82.92
21594;BME280;10959;51.328;7.322;2022-11-30T08:22:45;99375.00;;;8.56;82.96
21594;BME280;10959;51.328;7.322;2022-11-30T08:25:13;99387.50;;;8.57;82.87
21594;BME280;10959;51.328;7.322;2022-11-30T08:27:39;99374.94;;;8.59;82.55
21594;BME280;10959;51.328;7.322;2022-11-30T08:30:07;99376.78;;;8.57;82.39
21594;BME280;10959;51.328;7.322;2022-11-30T08:32:33;99385.66;;;8.59;82.84
21594;BME280;10959;51.328;7.322;2022-11-30T08:35:00;99385.47;;;8.65;83.09
21594;BME280;10959;51.328;7.322;2022-11-30T08:37:26;99384.44;;;8.69;82.60
21594;BME280;10959;51.328;7.322;2022-11-30T08:39:53;99380.69;;;8.75;82.91
21594;BME280;10959;51.328;7.322;2022-11-30T08:42:20;99386.91;;;8.75;83.05
21594;BME280;10959;51.328;7.322;2022-11-30T08:44:47;99383.31;;;8.76;82.46
21594;BME280;10959;51.328;7.322;2022-11-30T08:47:13;99388.69;;;8.76;82.41
21594;BME280;10959;51.328;7.322;2022-11-30T08:49:40;99390.34;;;8.80;83.20
21594;BME280;10959;51.328;7.322;2022-11-30T08:52:06;99392.19;;;8.78;82.90
21594;BME280;10959;51.328;7.322;2022-11-30T08:54:33;99394.81;;;8.80;82.66
21594;BME280;10959;51.328;7.322;2022-11-30T08:56:59;99406.22;;;8.87;82.57
21594;BME280;10959;51.328;7.322;2022-11-30T08:59:29;99402.78;;;8.83;82.58
21594;BME280;10959;51.328;7.322;2022-11-30T09:01:56;99406.13;;;8.90;82.40
21594;BME280;10959;51.328;7.322;2022-11-30T09:04:22;99407.03;;;8.90;82.43
21594;BME280;10959;51.328;7.322;2022-11-30T09:06:49;99418.59;;;8.92;82.44
21594;BME280;10959;51.328;7.322;2022-11-30T09:09:15;99409.56;;;8.95;82.27
21594;BME280;10959;51.328;7.322;2022-11-30T09:11:42;99416.69;;;8.96;82.15
21594;BME280;10959;51.328;7.322;2022-11-30T09:14:08;99412.06;;;8.99;82.23
21594;BME280;10959;51.328;7.322;2022-11-30T09:16:36;99407.25;;;8.82;82.10
21594;BME280;10959;51.328;7.322;2022-11-30T09:19:03;99411.91;;;8.77;82.39
21594;BME280;10959;51.328;7.322;2022-11-30T09:21:29;99417.19;;;8.80;83.07
21594;BME280;10959;51.328;7.322;2022-11-30T09:23:56;99416.97;;;8.87;83.17
21594;BME280;10959;51.328;7.322;2022-11-30T09:26:22;99418.63;;;8.91;82.66
21594;BME280;10959;51.328;7.322;2022-11-30T09:28:50;99421.47;;;8.86;82.59
21594;BME280;10959;51.328;7.322;2022-11-30T09:31:18;99420.91;;;8.76;82.42
21594;BME280;10959;51.328;7.322;2022-11-30T09:33:47;99411.28;;;8.69;83.13
21594;BME280;10959;51.328;7.322;2022-11-30T09:36:15;99408.72;;;8.66;82.97
21594;BME280;10959;51.328;7.322;2022-11-30T09:38:42;99417.69;;;8.65;83.29
21594;BME280;10959;51.328;7.322;2022-11-30T09:41:26;99416.50;;;8.45;83.60
21594;BME280;10959;51.328;7.322;2022-11-30T09:43:59;99414.78;;;8.41;83.75
21594;BME280;10959;51.328;7.322;2022-11-30T09:46:32;99408.75;;;8.35;84.19
21594;BME280;10959;51.328;7.322;2022-11-30T09:49:07;99413.91;;;8.41;84.61
21594;BME280;10959;51.328;7.322;2022-11-30T09:51:41;99403.91;;;8.47;84.68
21594;BME280;10959;51.328;7.322;2022-11-30T09:54:12;99407.38;;;8.51;84.18
21594;BME280;10959;51.328;7.322;2022-11-30T09:56:41;99397.06;;;8.65;84.07
21594;BME280;10959;51.328;7.322;2022-11-30T09:59:13;99404.16;;;8.68;84.18
21594;BME280;10959;51.328;7.322;2022-11-30T10:01:45;99407.31;;;8.81;83.61
21594;BME280;10959;51.328;7.322;2022-11-30T10:04:20;99409.25;;;8.77;83.83
21594;BME280;10959;51.328;7.322;2022-11-30T10:06:55;99408.19;;;8.81;83.71
21594;BME280;10959;51.328;7.322;2022-11-30T10:09:38;99410.06;;;8.79;83.12
21594;BME280;10959;51.328;7.322;2022-11-30T10:12:13;99414.13;;;8.91;83.46
21594;BME280;10959;51.328;7.322;2022-11-30T10:15:10;99407.84;;;8.64;83.55
21594;BME280;10959;51.328;7.322;2022-11-30T10:17:45;99408.59;;;8.69;83.85
21594;BME280;10959;51.328;7.322;2022-11-30T10:20:26;99408.88;;;8.60;83.33
21594;BME280;10959;51.328;7.322;2022-11-30T10:23:06;99408.72;;;8.66;83.94
21594;BME280;10959;51.328;7.322;2022-11-30T10:25:43;99407.00;;;8.63;83.81
21594;BME280;10959;51.328;7.322;2022-11-30T10:28:16;99413.00;;;8.72;83.37
21594;BME280;10959;51.328;7.322;2022-11-30T10:30:44;99405.81;;;8.72;83.67
21594;BME280;10959;51.328;7.322;2022-11-30T10:33:15;99399.81;;;8.64;83.71
21594;BME280;10959;51.328;7.322;2022-11-30T10:35:47;99410.34;;;8.70;83.74
21594;BME280;10959;51.328;7.322;2022-11-30T10:38:18;99401.06;;;8.80;83.38
21594;BME280;10959;51.328;7.322;2022-11-30T10:40:49;99408.88;;;8.88;83.30
21594;BME280;10959;51.328;7.322;2022-11-30T10:43:21;99404.28;;;8.92;83.27
21594;BME280;10959;51.328;7.322;2022-11-30T10:45:51;99402.19;;;9.00;83.14
21594;BME280;10959;51.328;7.322;2022-11-30T10:48:22;99409.44;;;8.98;82.79
21594;BME280;10959;51.328;7.322;2022-11-30T10:50:52;99397.84;;;8.97;82.67
21594;BME280;10959;51.328;7.322;2022-11-30T10:53:19;99398.69;;;8.98;82.65
21594;BME280;10959;51.328;7.322;2022-11-30T10:55:55;99395.28;;;8.93;82.54
21594;BME280;10959;51.328;7.322;2022-11-30T10:58:27;99395.78;;;9.04;82.50
21594;BME280;10959;51.328;7.322;2022-11-30T11:01:00;99394.09;;;9.02;82.78
21594;BME280;10959;51.328;7.322;2022-11-30T11:03:28;99394.88;;;9.05;82.43
21594;BME280;10959;51.328;7.322;2022-11-30T11:06:11;99397.25;;;8.88;82.68
21594;BME280;10959;51.328;7.322;2022-11-30T11:08:39;99405.28;;;9.14;82.92
21594;BME280;10959;51.328;7.322;2022-11-30T11:11:26;99396.22;;;8.92;82.10
21594;BME280;10959;51.328;7.322;2022-11-30T11:14:07;99397.91;;;8.94;82.28
21594;BME280;10959;51.328;7.322;2022-11-30T11:16:48;99395.28;;;8.93;82.47
21594;BME280;10959;51.328;7.322;2022-11-30T11:19:22;99393.22;;;9.01;82.29
21594;BME280;10959;51.328;7.322;2022-11-30T11:21:51;99400.75;;;9.16;82.52
21594;BME280;10959;51.328;7.322;2022-11-30T11:24:18;99396.13;;;9.22;82.83
21594;BME280;10959;51.328;7.322;2022-11-30T11:26:48;99396.00;;;9.25;82.00
21594;BME280;10959;51.328;7.322;2022-11-30T11:29:22;99399.84;;;9.18;82.37
21594;BME280;10959;51.328;7.322;2022-11-30T11:32:16;99395.69;;;9.07;82.39
21594;BME280;10959;51.328;7.322;2022-11-30T11:34:44;99397.66;;;9.29;82.01
21594;BME280;10959;51.328;7.322;2022-11-30T11:37:17;99392.69;;;9.16;81.76
21594;BME280;10959;51.328;7.322;2022-11-30T11:39:54;99398.53;;;9.03;81.77
21594;BME280;10959;51.328;7.322;2022-11-30T11:42:21;99394.66;;;9.11;82.44
21594;BME280;10959;51.328;7.322;2022-11-30T11:44:49;99400.94;;;9.12;82.38
21594;BME280;10959;51.328;7.322;2022-11-30T11:47:23;99393.31;;;8.98;81.84
21594;BME280;10959;51.328;7.322;2022-11-30T11:49:51;99397.41;;;9.10;82.21
21594;BME280;10959;51.328;7.322;2022-11-30T11:52:29;99399.09;;;9.12;82.64
21594;BME280;10959;51.328;7.322;2022-11-30T11:54:59;99403.63;;;9.12;82.26
21594;BME280;10959;51.328;7.322;2022-11-30T11:57:34;99400.25;;;9.05;82.14
21594;BME280;10959;51.328;7.322;2022-11-30T12:00:05;99404.31;;;9.17;82.03
21594;BME280;10959;51.328;7.322;2022-11-30T12:02:36;99410.66;;;9.14;82.21
21594;BME280;10959;51.328;7.322;2022-11-30T12:05:10;99407.16;;;9.12;82.16
21594;BME280;10959;51.328;7.322;2022-11-30T12:07:46;99412.44;;;9.15;82.15
21594;BME280;10959;51.328;7.322;2022-11-30T12:10:24;99414.41;;;9.10;82.23
21594;BME280;10959;51.328;7.322;2022-11-30T12:12:52;99404.88;;;9.27;82.17
21594;BME280;10959;51.328;7.322;2022-11-30T12:15:22;99409.50;;;9.23;82.21
21594;BME280;10959;51.328;7.322;2022-11-30T12:17:59;99412.66;;;9.09;82.05
21594;BME280;10959;51.328;7.322;2022-11-30T12:20:36;99411.16;;;9.01;82.46
21594;BME280;10959;51.328;7.322;2022-11-30T12:26:18;99413.72;;;9.04;82.60
21594;BME280;10959;51.328;7.322;2022-11-30T12:28:58;99416.38;;;9.05;82.46
21594;BME280;10959;51.328;7.322;2022-11-30T12:31:36;99409.84;;;9.12;82.43
21594;BME280;10959;51.328;7.322;2022-11-30T12:34:09;99412.25;;;9.22;82.77
21594;BME280;10959;51.328;7.322;2022-11-30T12:36:47;99413.16;;;9.21;82.21
21594;BME280;10959;51.328;7.322;2022-11-30T12:39:24;99415.00;;;9.19;82.22
21594;BME280;10959;51.328;7.322;2022-11-30T12:41:58;99417.63;;;9.22;81.94
21594;BME280;10959;51.328;7.322;2022-11-30T12:44:38;99414.19;;;9.16;82.16
21594;BME280;10959;51.328;7.322;2022-11-30T12:47:18;99418.59;;;9.19;82.00
21594;BME280;10959;51.328;7.322;2022-11-30T12:50:02;99423.19;;;9.15;82.23
21594;BME280;10959;51.328;7.322;2022-11-30T12:52:44;99419.69;;;9.13;82.18
21594;BME280;10959;51.328;7.322;2022-11-30T12:55:22;99426.19;;;9.06;82.38
21594;BME280;10959;51.328;7.322;2022-11-30T12:57:57;99421.63;;;9.08;82.55
21594;BME280;10959;51.328;7.322;2022-11-30T13:00:32;99422.66;;;9.04;82.76
21594;BME280;10959;51.328;7.322;2022-11-30T13:05:58;99422.13;;;8.93;83.24
21594;BME280;10959;51.328;7.322;2022-11-30T13:08:29;99428.50;;;8.90;83.14
21594;BME280;10959;51.328;7.322;2022-11-30T13:11:04;99429.38;;;8.91;83.31
21594;BME280;10959;51.328;7.322;2022-11-30T13:13:35;99425.78;;;8.92;83.24
21594;BME280;10959;51.328;7.322;2022-11-30T13:16:04;99425.34;;;9.04;82.69
21594;BME280;10959;51.328;7.322;2022-11-30T13:18:32;99426.19;;;9.06;82.93
21594;BME280;10959;51.328;7.322;2022-11-30T13:21:03;99429.69;;;9.08;82.73
21594;BME280;10959;51.328;7.322;2022-11-30T13:23:34;99427.13;;;9.05;82.26
21594;BME280;10959;51.328;7.322;2022-11-30T13:26:05;99422.06;;;8.96;82.98
21594;BME280;10959;51.328;7.322;2022-11-30T13:31:42;99420.19;;;8.98;83.13